createdAt,value
2017-06-11T00:01:05.038Z,79.40
2017-06-11T00:03:36.611Z,80.30
2017-06-11T00:06:08.194Z,79.50
2017-06-11T00:08:40.438Z,80.10
2017-06-11T00:11:11.940Z,80.10
2017-06-11T00:13:43.422Z,80.40
2017-06-11T00:16:14.980Z,80.30
2017-06-11T00:18:46.526Z,79.80
2017-06-11T00:21:18.069Z,79.70
2017-06-11T00:23:49.552Z,79.90
2017-06-11T00:26:28.078Z,79.30
2017-06-11T00:28:59.573Z,79.20
2017-06-11T00:31:31.133Z,78.90
2017-06-11T00:34:02.653Z,77.80
2017-06-11T00:36:34.885Z,78.40
2017-06-11T00:39:06.477Z,78.40
2017-06-11T00:41:38.726Z,78.40
2017-06-11T00:44:10.390Z,78.40
2017-06-11T00:46:42.641Z,80.40
2017-06-11T00:49:14.162Z,79.60
2017-06-11T00:51:45.670Z,79.70
2017-06-11T00:54:17.225Z,79.80
2017-06-11T00:56:49.473Z,79.20
2017-06-11T00:59:20.992Z,79.10
2017-06-11T01:01:52.842Z,79.50
2017-06-11T01:04:24.401Z,79.50
2017-06-11T01:06:55.900Z,79.00
2017-06-11T01:09:27.529Z,78.90
2017-06-11T01:11:59.064Z,79.50
2017-06-11T01:14:30.634Z,79.50
2017-06-11T01:17:02.102Z,78.60
2017-06-11T01:19:33.670Z,78.90
2017-06-11T01:22:05.170Z,79.30
2017-06-11T01:24:36.736Z,78.20
2017-06-11T01:27:08.249Z,76.40
2017-06-11T01:29:39.818Z,76.70
2017-06-11T01:32:11.346Z,77.20
2017-06-11T01:34:43.185Z,77.70
2017-06-11T01:37:14.679Z,78.20
2017-06-11T01:39:46.269Z,78.50
2017-06-11T01:42:17.846Z,78.80
2017-06-11T01:44:49.397Z,78.20
2017-06-11T01:47:20.916Z,78.40
2017-06-11T01:49:52.446Z,78.70
2017-06-11T01:52:24.273Z,79.20
2017-06-11T01:54:56.534Z,80.10
2017-06-11T01:57:28.853Z,80.80
2017-06-11T02:00:00.366Z,80.70
2017-06-11T02:02:32.621Z,80.70
2017-06-11T02:05:04.126Z,80.70
2017-06-11T02:07:35.689Z,80.90
2017-06-11T02:10:07.185Z,80.70
2017-06-11T02:12:38.697Z,80.10
2017-06-11T02:15:10.177Z,79.00
2017-06-11T02:17:41.742Z,77.70
2017-06-11T02:20:13.973Z,76.90
2017-06-11T02:22:45.614Z,76.80
2017-06-11T02:25:17.121Z,76.90
2017-06-11T02:27:49.468Z,78.40
2017-06-11T02:30:20.964Z,78.40
2017-06-11T02:32:47.372Z,78.70
2017-06-11T02:35:18.902Z,79.40
2017-06-11T02:37:50.391Z,79.50
2017-06-11T02:40:22.677Z,80.00
2017-06-11T02:42:54.196Z,80.00
2017-06-11T02:45:26.502Z,80.60
2017-06-11T02:47:58.049Z,79.60
2017-06-11T02:50:29.526Z,80.40
2017-06-11T02:53:01.081Z,79.60
2017-06-11T02:55:32.589Z,79.70
2017-06-11T02:58:04.833Z,79.60
2017-06-11T03:00:36.322Z,79.20
2017-06-11T03:03:08.597Z,80.20
2017-06-11T03:05:40.057Z,80.20
2017-06-11T03:08:11.609Z,80.00
2017-06-11T03:10:43.136Z,79.80
2017-06-11T03:13:15.429Z,79.30
2017-06-11T03:15:46.898Z,79.30
2017-06-11T03:18:18.444Z,80.20
2017-06-11T03:20:49.968Z,80.60
2017-06-11T03:23:22.273Z,80.90
2017-06-11T03:25:53.799Z,80.80
2017-06-11T03:28:25.373Z,80.90
2017-06-11T03:30:56.840Z,80.60
2017-06-11T03:33:28.632Z,80.90
2017-06-11T03:36:00.148Z,80.90
2017-06-11T03:38:31.694Z,80.70
2017-06-11T03:41:03.237Z,81.90
2017-06-11T03:43:34.869Z,81.90
2017-06-11T03:46:07.103Z,81.10
2017-06-11T03:48:38.990Z,81.10
2017-06-11T03:51:11.235Z,81.00
2017-06-11T03:53:42.760Z,81.00
2017-06-11T03:56:14.230Z,80.50
2017-06-11T03:58:45.774Z,79.90
2017-06-11T04:01:17.288Z,79.50
2017-06-11T04:03:48.865Z,78.60
2017-06-11T04:06:20.387Z,77.80
2017-06-11T04:08:51.970Z,78.00
2017-06-11T04:11:23.485Z,78.10
2017-06-11T04:13:55.789Z,79.20
2017-06-11T04:16:27.258Z,79.20
2017-06-11T04:18:58.766Z,79.30
2017-06-11T04:21:30.311Z,78.70
2017-06-11T04:24:02.581Z,77.70
2017-06-11T04:26:34.077Z,77.60
2017-06-11T04:29:05.562Z,77.50
2017-06-11T04:31:37.111Z,77.40
2017-06-11T04:34:08.627Z,77.70
2017-06-11T04:36:40.185Z,77.10
2017-06-11T04:39:11.674Z,75.20
2017-06-11T04:41:43.193Z,74.40
2017-06-11T04:44:14.675Z,74.00
2017-06-11T04:46:46.233Z,72.80
2017-06-11T04:49:17.853Z,71.10
2017-06-11T04:51:49.409Z,70.70
2017-06-11T04:54:20.909Z,71.50
2017-06-11T04:56:53.152Z,72.70
2017-06-11T04:59:24.632Z,72.70
2017-06-11T05:01:56.933Z,69.90
2017-06-11T05:04:28.460Z,69.90
2017-06-11T05:06:54.868Z,70.00
2017-06-11T05:09:26.458Z,70.00
2017-06-11T05:11:58.030Z,70.20
2017-06-11T05:14:29.950Z,70.20
2017-06-11T05:17:01.462Z,70.10
2017-06-11T05:19:33.026Z,69.30
2017-06-11T05:22:04.540Z,68.90
2017-06-11T05:24:36.060Z,69.40
2017-06-11T05:27:09.572Z,68.90
2017-06-11T05:29:41.229Z,68.30
2017-06-11T05:32:13.597Z,68.70
2017-06-11T05:34:45.870Z,68.60
2017-06-11T05:37:17.404Z,68.40
2017-06-11T05:39:48.951Z,67.30
2017-06-11T05:42:20.490Z,67.50
2017-06-11T05:44:51.956Z,67.50
2017-06-11T05:47:23.473Z,67.20
2017-06-11T05:49:54.974Z,66.50
2017-06-11T05:52:27.281Z,67.10
2017-06-11T05:54:58.768Z,67.00
2017-06-11T05:57:30.305Z,66.30
2017-06-11T06:00:01.854Z,67.40
2017-06-11T06:02:33.370Z,68.60
2017-06-11T06:07:46.077Z,68.20
2017-06-11T06:10:17.657Z,66.00
2017-06-11T06:12:49.189Z,65.60
2017-06-11T06:15:21.451Z,64.60
2017-06-11T06:17:52.933Z,64.60
2017-06-11T06:20:24.458Z,64.10
2017-06-11T06:22:56.008Z,62.60
2017-06-11T06:25:27.472Z,63.50
2017-06-11T06:27:59.808Z,64.50
2017-06-11T06:30:31.357Z,64.40
2017-06-11T06:33:02.918Z,64.60
2017-06-11T06:35:34.478Z,62.40
2017-06-11T06:38:06.025Z,61.20
2017-06-11T06:40:37.578Z,60.60
2017-06-11T06:43:09.093Z,60.70
2017-06-11T06:45:40.638Z,61.30
2017-06-11T06:48:12.147Z,60.60
2017-06-11T06:50:44.196Z,61.20
2017-06-11T06:53:15.682Z,61.50
2017-06-11T06:55:48.382Z,61.70
2017-06-11T06:58:19.936Z,61.70
2017-06-11T07:00:51.770Z,61.50
2017-06-11T07:03:24.033Z,60.80
2017-06-11T07:05:56.342Z,60.00
2017-06-11T07:08:27.870Z,60.00
2017-06-11T07:11:00.149Z,58.30
2017-06-11T07:13:31.671Z,58.20
2017-06-11T07:16:03.324Z,58.50
2017-06-11T07:18:34.814Z,58.10
2017-06-11T07:21:06.341Z,57.90
2017-06-11T07:23:38.597Z,57.10
2017-06-11T07:26:10.356Z,57.10
2017-06-11T07:28:41.913Z,57.20
2017-06-11T07:31:14.216Z,57.60
2017-06-11T07:33:45.689Z,57.60
2017-06-11T07:36:17.185Z,56.90
2017-06-11T07:38:49.173Z,54.80
2017-06-11T07:41:20.738Z,54.40
2017-06-11T07:43:52.336Z,54.20
2017-06-11T07:46:24.217Z,54.00
2017-06-11T07:48:55.906Z,54.20
2017-06-11T07:51:27.402Z,53.40
2017-06-11T07:53:58.901Z,51.80
2017-06-11T07:56:31.177Z,50.50
2017-06-11T07:59:03.428Z,49.90
2017-06-11T08:01:35.797Z,50.40
2017-06-11T08:04:07.419Z,50.40
2017-06-11T08:06:38.941Z,51.00
2017-06-11T08:09:10.425Z,49.70
2017-06-11T08:11:42.066Z,49.20
2017-06-11T08:14:13.822Z,49.20
2017-06-11T08:16:45.478Z,47.90
2017-06-11T08:19:17.002Z,48.80
2017-06-11T08:21:49.410Z,49.20
2017-06-11T08:24:20.941Z,49.20
2017-06-11T08:26:52.582Z,47.90
2017-06-11T08:29:24.143Z,47.80
2017-06-11T08:31:55.671Z,47.90
2017-06-11T08:34:27.937Z,47.70
2017-06-11T08:37:00.193Z,48.90
2017-06-11T08:39:31.746Z,48.90
2017-06-11T08:42:03.246Z,50.80
2017-06-11T08:44:35.125Z,49.00
2017-06-11T08:47:06.754Z,46.90
2017-06-11T08:49:38.565Z,47.20
2017-06-11T08:52:10.328Z,50.20
2017-06-11T08:54:41.922Z,48.20
2017-06-11T08:57:13.423Z,49.50
2017-06-11T08:59:44.942Z,46.90
2017-06-11T09:02:16.749Z,48.20
2017-06-11T09:04:48.686Z,46.40
2017-06-11T09:07:20.252Z,45.70
2017-06-11T09:09:51.809Z,45.70
2017-06-11T09:12:23.340Z,43.60
2017-06-11T09:14:54.976Z,43.80
2017-06-11T09:17:26.485Z,44.80
2017-06-11T09:19:58.032Z,46.70
2017-06-11T09:22:30.257Z,45.00
2017-06-11T09:25:01.905Z,45.30
2017-06-11T09:27:33.389Z,47.20
2017-06-11T09:30:04.942Z,47.70
2017-06-11T09:32:36.472Z,46.70
2017-06-11T09:35:07.969Z,45.50
2017-06-11T09:37:40.273Z,43.20
2017-06-11T09:40:11.778Z,43.20
2017-06-11T09:42:43.331Z,44.20
2017-06-11T09:45:14.884Z,43.70
2017-06-11T09:47:46.393Z,44.90
2017-06-11T09:50:17.930Z,47.10
2017-06-11T09:52:49.469Z,43.90
2017-06-11T09:55:21.005Z,43.80
2017-06-11T09:57:52.473Z,43.30
2017-06-11T10:00:24.709Z,46.00
2017-06-11T10:02:56.209Z,45.90
2017-06-11T10:05:27.758Z,44.30
2017-06-11T10:07:59.230Z,43.30
2017-06-11T10:10:30.777Z,49.30
2017-06-11T10:13:02.333Z,46.40
2017-06-11T10:15:33.832Z,46.00
2017-06-11T10:18:05.412Z,47.90
2017-06-11T10:20:36.909Z,46.00
2017-06-11T10:23:08.550Z,47.50
2017-06-11T10:25:40.059Z,46.10
2017-06-11T10:28:11.641Z,46.30
2017-06-11T10:30:43.178Z,47.00
2017-06-11T10:33:14.683Z,47.80
2017-06-11T10:35:46.226Z,44.50
2017-06-11T10:38:17.743Z,45.60
2017-06-11T10:40:49.285Z,47.10
2017-06-11T10:43:21.565Z,46.90
2017-06-11T10:45:53.129Z,46.80
2017-06-11T10:48:24.626Z,47.90
2017-06-11T10:50:56.146Z,46.90
2017-06-11T10:53:27.637Z,47.10
2017-06-11T10:55:59.157Z,46.30
2017-06-11T10:58:30.709Z,45.80
2017-06-11T11:01:02.213Z,45.90
2017-06-11T11:03:34.464Z,47.60
2017-06-11T11:06:05.956Z,47.50
2017-06-11T11:08:37.511Z,47.50
2017-06-11T11:11:09.089Z,45.90
2017-06-11T11:13:40.673Z,46.70
2017-06-11T11:16:12.166Z,45.90
2017-06-11T11:18:43.713Z,47.30
2017-06-11T11:21:15.264Z,48.50
2017-06-11T11:23:47.561Z,48.40
2017-06-11T11:26:19.046Z,48.40
2017-06-11T11:28:50.585Z,46.50
2017-06-11T11:31:22.092Z,45.90
2017-06-11T11:33:54.314Z,48.50
2017-06-11T11:36:25.874Z,48.50
2017-06-11T11:38:57.364Z,48.20
2017-06-11T11:41:29.666Z,44.60
2017-06-11T11:44:01.182Z,44.60
2017-06-11T11:46:33.540Z,44.20
2017-06-11T11:49:05.041Z,44.30
2017-06-11T11:51:36.581Z,45.00
2017-06-11T11:54:08.113Z,45.10
2017-06-11T11:56:39.593Z,45.40
2017-06-11T11:59:11.133Z,44.70
2017-06-11T12:01:42.623Z,43.70
2017-06-11T12:04:14.125Z,43.00
2017-06-11T12:06:45.598Z,41.60
2017-06-11T12:09:17.174Z,46.80
2017-06-11T12:11:48.712Z,43.40
2017-06-11T12:14:20.252Z,45.80
2017-06-11T12:16:51.765Z,43.50
2017-06-11T12:19:24.041Z,43.70
2017-06-11T12:21:56.325Z,43.60
2017-06-11T12:24:27.832Z,43.40
2017-06-11T12:26:59.441Z,42.40
2017-06-11T12:29:30.906Z,41.50
2017-06-11T12:32:02.451Z,39.40
2017-06-11T12:34:34.001Z,39.40
2017-06-11T12:37:05.510Z,39.10
2017-06-11T12:39:37.044Z,39.30
2017-06-11T12:42:08.546Z,38.20
2017-06-11T12:44:40.127Z,39.20
2017-06-11T12:47:11.606Z,41.90
2017-06-11T12:49:43.166Z,43.40
2017-06-11T12:52:14.688Z,41.00
2017-06-11T12:54:46.470Z,38.10
2017-06-11T12:57:17.982Z,37.30
2017-06-11T12:59:49.531Z,37.00
2017-06-11T13:02:21.702Z,37.50
2017-06-11T13:04:53.232Z,34.60
2017-06-11T13:07:25.481Z,32.30
2017-06-11T13:09:57.336Z,32.30
2017-06-11T13:12:28.848Z,35.10
2017-06-11T13:15:00.393Z,35.10
2017-06-11T13:17:31.877Z,32.50
2017-06-11T13:20:03.449Z,33.60
2017-06-11T13:22:35.285Z,33.10
2017-06-11T13:25:07.017Z,33.10
2017-06-11T13:27:38.520Z,33.90
2017-06-11T13:30:10.798Z,31.30
2017-06-11T13:32:43.024Z,33.80
2017-06-11T13:35:14.548Z,33.60
2017-06-11T13:37:46.015Z,33.60
2017-06-11T13:40:17.670Z,34.80
2017-06-11T13:42:49.181Z,33.40
2017-06-11T13:45:21.472Z,32.50
2017-06-11T13:47:52.981Z,32.40
2017-06-11T13:50:24.513Z,34.80
2017-06-11T13:52:56.025Z,30.20
2017-06-11T13:55:27.598Z,31.20
2017-06-11T13:57:59.108Z,32.20
2017-06-11T14:00:31.422Z,34.10
2017-06-11T14:03:02.880Z,34.10
2017-06-11T14:05:34.404Z,34.60
2017-06-11T14:08:05.912Z,30.50
2017-06-11T14:10:37.440Z,32.50
2017-06-11T14:13:08.977Z,32.10
2017-06-11T14:15:40.604Z,31.90
2017-06-11T14:18:12.826Z,33.90
2017-06-11T14:20:44.386Z,33.70
2017-06-11T14:23:15.922Z,33.40
2017-06-11T14:25:47.478Z,32.90
2017-06-11T14:28:19.089Z,33.40
2017-06-11T14:30:50.746Z,33.20
2017-06-11T14:33:22.342Z,32.20
2017-06-11T14:35:54.133Z,32.60
2017-06-11T14:38:25.876Z,32.80
2017-06-11T14:40:58.261Z,36.70
2017-06-11T14:43:30.036Z,36.10
2017-06-11T14:46:02.577Z,32.70
2017-06-11T14:48:34.221Z,32.60
2017-06-11T14:51:05.725Z,33.90
2017-06-11T14:53:37.984Z,32.80
2017-06-11T14:56:09.469Z,32.70
2017-06-11T14:58:41.310Z,32.50
2017-06-11T15:01:12.810Z,32.30
2017-06-11T15:03:44.350Z,32.50
2017-06-11T15:06:15.859Z,32.00
2017-06-11T15:08:48.157Z,32.30
2017-06-11T15:11:19.761Z,32.30
2017-06-11T15:13:51.306Z,32.10
2017-06-11T15:16:22.820Z,32.30
2017-06-11T15:18:54.422Z,32.70
2017-06-11T15:21:26.719Z,33.70
2017-06-11T15:23:58.949Z,34.40
2017-06-11T15:26:30.603Z,34.00
2017-06-11T15:29:02.131Z,34.80
2017-06-11T15:31:33.669Z,37.50
2017-06-11T15:34:05.295Z,34.40
2017-06-11T15:36:37.505Z,35.10
2017-06-11T15:39:09.116Z,34.90
2017-06-11T15:41:41.398Z,36.70
2017-06-11T15:44:13.688Z,35.70
2017-06-11T15:46:45.386Z,35.60
2017-06-11T15:49:16.911Z,36.60
2017-06-11T15:51:48.502Z,36.70
2017-06-11T15:54:20.017Z,37.20
2017-06-11T15:56:51.514Z,38.40
2017-06-11T15:59:22.989Z,39.20
2017-06-11T16:01:55.309Z,37.50
2017-06-11T16:04:26.892Z,37.60
2017-06-11T16:06:58.427Z,37.50
2017-06-11T16:09:29.905Z,38.00
2017-06-11T16:11:56.357Z,38.10
2017-06-11T16:14:28.593Z,39.90
2017-06-11T16:17:00.133Z,39.80
2017-06-11T16:19:31.704Z,38.30
2017-06-11T16:22:03.249Z,39.80
2017-06-11T16:24:34.777Z,40.10
2017-06-11T16:27:06.340Z,39.00
2017-06-11T16:29:38.092Z,39.50
2017-06-11T16:32:09.633Z,40.90
2017-06-11T16:34:41.132Z,41.60
2017-06-11T16:37:12.669Z,39.90
2017-06-11T16:39:44.310Z,39.60
2017-06-11T16:42:15.809Z,40.40
2017-06-11T16:44:48.045Z,40.80
2017-06-11T16:47:19.829Z,40.80
2017-06-11T16:49:51.586Z,40.90
2017-06-11T16:52:23.348Z,41.10
2017-06-11T16:54:54.946Z,41.60
2017-06-11T16:57:26.602Z,42.00
2017-06-11T16:59:58.234Z,41.40
2017-06-11T17:02:30.117Z,41.90
2017-06-11T17:05:01.731Z,41.50
2017-06-11T17:07:33.261Z,41.30
2017-06-11T17:10:04.816Z,43.50
2017-06-11T17:12:37.069Z,42.80
2017-06-11T17:15:08.635Z,42.80
2017-06-11T17:17:40.158Z,42.70
2017-06-11T17:20:11.800Z,42.00
2017-06-11T17:22:43.309Z,41.00
2017-06-11T17:25:15.685Z,43.10
2017-06-11T17:27:47.894Z,42.00
2017-06-11T17:30:19.429Z,42.00
2017-06-11T17:32:50.930Z,42.70
2017-06-11T17:35:22.516Z,43.40
2017-06-11T17:37:54.009Z,42.70
2017-06-11T17:40:25.823Z,43.70
2017-06-11T17:42:57.390Z,44.00
2017-06-11T17:45:28.941Z,44.60
2017-06-11T17:48:00.450Z,44.60
2017-06-11T17:50:31.993Z,45.10
2017-06-11T17:53:03.451Z,45.90
2017-06-11T17:55:34.972Z,44.30
2017-06-11T17:58:06.498Z,45.00
2017-06-11T18:00:38.068Z,45.80
2017-06-11T18:03:09.584Z,44.70
2017-06-11T18:05:41.840Z,45.70
2017-06-11T18:08:13.469Z,45.30
2017-06-11T18:10:44.969Z,45.60
2017-06-11T18:13:17.225Z,46.30
2017-06-11T18:15:48.759Z,46.30
2017-06-11T18:18:20.258Z,45.90
2017-06-11T18:20:51.793Z,46.40
2017-06-11T18:23:23.263Z,46.00
2017-06-11T18:25:54.893Z,46.00
2017-06-11T18:28:26.402Z,47.10
2017-06-11T18:30:57.933Z,48.50
2017-06-11T18:33:44.407Z,47.90
2017-06-11T18:36:16.694Z,48.00
2017-06-11T18:38:48.338Z,48.00
2017-06-11T18:41:20.569Z,50.70
2017-06-11T18:43:52.312Z,50.70
2017-06-11T18:46:24.652Z,51.20
2017-06-11T18:48:56.146Z,51.10
2017-06-11T18:51:27.765Z,51.70
2017-06-11T18:53:59.257Z,52.50
2017-06-11T18:56:30.801Z,53.40
2017-06-11T18:59:02.389Z,53.30
2017-06-11T19:01:34.630Z,53.80
2017-06-11T19:04:06.207Z,53.70
2017-06-11T19:06:37.714Z,54.10
2017-06-11T19:09:09.257Z,54.50
2017-06-11T19:11:40.789Z,54.40
2017-06-11T19:14:12.371Z,54.50
2017-06-11T19:16:44.698Z,55.40
2017-06-11T19:19:17.229Z,55.40
2017-06-11T19:21:48.745Z,55.40
2017-06-11T19:24:20.400Z,56.40
2017-06-11T19:26:51.943Z,56.70
2017-06-11T19:29:24.213Z,57.20
2017-06-11T19:31:56.424Z,57.40
2017-06-11T19:34:27.968Z,57.40
2017-06-11T19:36:59.449Z,57.70
2017-06-11T19:39:31.052Z,57.20
2017-06-11T19:42:02.553Z,58.30
2017-06-11T19:44:34.084Z,58.90
2017-06-11T19:47:05.890Z,58.60
2017-06-11T19:49:38.129Z,59.10
2017-06-11T19:52:09.664Z,59.10
2017-06-11T19:54:41.139Z,59.60
2017-06-11T19:57:12.655Z,58.50
2017-06-11T19:59:44.974Z,58.80
2017-06-11T20:02:16.666Z,59.40
2017-06-11T20:04:48.189Z,60.50
2017-06-11T20:07:19.726Z,60.60
2017-06-11T20:09:51.244Z,61.60
2017-06-11T20:12:32.658Z,62.40
2017-06-11T20:15:04.205Z,62.70
2017-06-11T20:17:35.697Z,62.70
2017-06-11T20:20:15.173Z,64.20
2017-06-11T20:22:46.680Z,64.10
2017-06-11T20:25:18.945Z,63.40
2017-06-11T20:27:50.437Z,63.10
2017-06-11T20:30:16.836Z,63.80
2017-06-11T20:32:49.078Z,63.40
2017-06-11T20:35:20.558Z,63.30
2017-06-11T20:37:53.129Z,64.70
2017-06-11T20:40:25.384Z,64.10
2017-06-11T20:42:56.905Z,64.00
2017-06-11T20:45:28.430Z,65.50
2017-06-11T20:47:59.901Z,65.20
2017-06-11T20:50:31.713Z,66.20
2017-06-11T20:53:03.956Z,65.30
2017-06-11T20:55:35.438Z,65.30
2017-06-11T20:58:07.690Z,65.60
2017-06-11T21:00:39.945Z,66.90
2017-06-11T21:03:11.429Z,66.70
2017-06-11T21:05:42.905Z,66.60
2017-06-11T21:08:14.457Z,66.30
2017-06-11T21:10:45.921Z,66.60
2017-06-11T21:13:17.428Z,66.00
2017-06-11T21:15:48.941Z,66.20
2017-06-11T21:18:20.573Z,66.10
2017-06-11T21:20:52.040Z,66.80
2017-06-11T21:23:23.573Z,66.10
2017-06-11T21:25:55.121Z,65.10
2017-06-11T21:28:26.921Z,64.80
2017-06-11T21:30:58.387Z,64.70
2017-06-11T21:33:29.913Z,65.10
2017-06-11T21:36:01.401Z,65.10
2017-06-11T21:38:32.957Z,65.80
2017-06-11T21:41:04.504Z,65.40
2017-06-11T21:43:36.028Z,65.90
2017-06-11T21:46:07.577Z,65.20
2017-06-11T21:48:39.068Z,65.10
2017-06-11T21:51:05.595Z,65.70
2017-06-11T21:53:37.139Z,66.20
2017-06-11T21:56:08.636Z,65.80
2017-06-11T21:58:40.194Z,65.70
2017-06-11T22:01:11.680Z,65.00
2017-06-11T22:03:43.277Z,65.50
2017-06-11T22:06:15.533Z,66.00
2017-06-11T22:08:47.066Z,65.80
2017-06-11T22:11:18.565Z,65.30
2017-06-11T22:13:50.800Z,66.00
2017-06-11T22:16:22.321Z,66.00
2017-06-11T22:18:53.829Z,66.10
2017-06-11T22:21:26.120Z,65.60
2017-06-11T22:23:57.587Z,65.60
2017-06-11T22:26:29.126Z,66.00
2017-06-11T22:29:00.654Z,66.20
2017-06-11T22:31:32.936Z,66.40
2017-06-11T22:34:04.433Z,66.40
2017-06-11T22:36:36.001Z,66.30
2017-06-11T22:39:07.525Z,65.90
2017-06-11T22:41:39.050Z,66.80
2017-06-11T22:44:10.549Z,66.00
2017-06-11T22:46:42.039Z,66.60
2017-06-11T22:49:14.253Z,66.90
2017-06-11T22:51:45.796Z,66.90
2017-06-11T22:54:17.297Z,67.80
2017-06-11T22:56:49.705Z,67.90
2017-06-11T22:59:21.205Z,67.50
2017-06-11T23:01:52.757Z,68.30
2017-06-11T23:04:24.293Z,68.40
2017-06-11T23:06:55.821Z,68.40
2017-06-11T23:09:27.297Z,68.00
2017-06-11T23:11:58.850Z,68.10
2017-06-11T23:14:30.360Z,67.70
2017-06-11T23:17:02.646Z,69.50
2017-06-11T23:19:34.268Z,69.50
2017-06-11T23:22:06.469Z,68.10
2017-06-11T23:24:38.002Z,68.00
2017-06-11T23:27:10.313Z,69.70
2017-06-11T23:29:41.889Z,69.60
2017-06-11T23:32:13.393Z,69.50
2017-06-11T23:34:44.912Z,70.00
2017-06-11T23:37:16.377Z,70.30
2017-06-11T23:39:48.658Z,70.60
2017-06-11T23:42:20.156Z,70.50
2017-06-11T23:44:51.654Z,71.60
2017-06-11T23:47:23.177Z,71.70
2017-06-11T23:49:54.710Z,71.80
2017-06-11T23:52:26.208Z,71.80
2017-06-11T23:54:58.465Z,72.40
2017-06-11T23:57:29.949Z,72.30
